KMEI

Key Field Airport

Meridian, Mississippi, USA
METAR KMEI 210358Z AUTO 20005KT 10SM CLR 11/06 A3022 RMK AO2 SLP231 T01110061
Observed Flight Rules
Jan-21 @ 03:58 UTC (45 minutes ago) Visual Flight Rules
Wind Visibility Clouds
200° at 5 knots 10 miles
  • Clear skies
Temperatures Readings
Current 11°C / 52°F
Dewpoint 6°C / 43°F
Humidity 72%
Altimeter 30.22" Hg
Pressure 1023.1 hPa
Elevation 89
METAR KMEI 210358Z AUTO 20005KT 10SM CLR 11/06 A3022 RMK AO2 SLP231 T01110061
Observed Flight Rules
Jan-21 @ 03:58 UTC
(45 minutes ago)
VFR
Wind Visibility
200° at 5 knots 10 miles
Clouds
  • Clear skies
Temperature Dewpoint
11°C / 52°F 6°C / 43°F
Humidity Altimeter Pressure
72% 30.22" Hg 1023.1 hPa